SKCL/CLO METAR and TAF weather

Enter ICAO airport designator
Station Type Date Time Source
SKCL METAR 2019/10/15 19:00 UTC NOAA

SKCL 151900Z 01005KT 330V030 9999 SCT017 BKN100 29/19 A2993 NOSIG


Station Type Date Time Source
SKCL Decoded METAR 2019/10/15 19:00 UTC NOAA

Cali / Alfonso Bonillaaragon, Colombia (SKCL) 03-33N 076-23W 969M
Oct 15, 2019 - 03:00 PM EDT / 2019.10.15 1900 UTC
Wind: from the N (010 degrees) at 6 MPH (5 KT) (direction variable):0
Visibility: greater than 7 mile(s):0
Sky conditions: mostly cloudy
Temperature: 84 F (29 C)
Dew Point: 66 F (19 C)
Relative Humidity: 54%
Pressure (altimeter): 29.93 in. Hg (1013 hPa)
ob: SKCL 151900Z 01005KT 330V030 9999 SCT017 BKN100 29/19 A2993 NOSIG
cycle: 19

Station Type Date Time Source
SKCL TAF 2019/10/15 18:57 UTC NOAA

TAF SKCL 151630Z 1518/1618 34010KT 9999 SCT030 SCT150
TEMPO 1519/1523 VCSH SCT020TCU
BECMG 1602/1604 04004KT
TEMPO 1609/1612 5000 VCFG DZ SCT015 TX30/1519Z TN19/1611Z

Example: see airport list